ADDS METAR Data INFO
IDs: Format: Raw Decoded Include TAF

Data at: 1249 UTC 19 Oct 2017

METAR for:KHWO (Hollywood/North Perr, FL, US)
Text:KHWO 191153Z 00000KT 10SM OVC080 24/23 A3002 RMK AO2 SLP165 T02440228 10244 20233 53010
Temperature: 24.4°C ( 76°F)
Dewpoint: 22.8°C ( 73°F) [RH = 91%]
Pressure (altimeter):30.02 inches Hg (1016.7 mb) [Sea level pressure: 1016.5 mb]
Winds:calm
Visibility:10 or more sm (16+ km)
Ceiling:8000 feet AGL
Clouds: overcast cloud deck at 8000 feet AGL